Time;durP1;ratioP1;P1;durP2;ratioP2;P2;SDS_P1;SDS_P2;PMS_P1;PMS_P2;Temp;Humidity;BMP_temperature;BMP_pressure;BME280_temperature;BME280_humidity;BME280_pressure;Samples;Min_cycle;Max_cycle;Signal;HPM_P1;HPM_P2
2022/12/16 00:01:23;;;;;;;79.90;12.65;;;;;;;12.50;55.90;92891.56;5075367;28;20047;-88
2022/12/16 00:03:54;;;;;;;23.65;9.70;;;;;;;13.90;52.95;92897.00;5076267;28;20043;-88
2022/12/16 00:06:21;;;;;;;44.97;11.57;;;;;;;13.02;52.50;92884.50;5076150;28;20020;-88
2022/12/16 00:08:47;;;;;;;530.22;33.38;;;;;;;10.21;65.07;92878.28;5076428;28;20032;-87
2022/12/16 00:11:12;;;;;;;44.00;13.85;;;;;;;12.15;58.04;92876.69;5077478;28;20402;-87
2022/12/16 00:13:39;;;;;;;611.47;34.15;;;;;;;10.52;63.10;92895.84;5077182;28;20051;-87
2022/12/16 00:16:07;;;;;;;24.00;10.75;;;;;;;12.65;57.89;92890.25;5075999;28;20036;-87
2022/12/16 00:18:32;;;;;;;78.95;13.25;;;;;;;12.95;55.08;92895.50;5077385;28;20029;-88
2022/12/16 00:20:59;;;;;;;26.88;10.50;;;;;;;13.01;54.62;92898.72;5075859;28;20036;-87
2022/12/16 00:23:24;;;;;;;25.17;9.98;;;;;;;12.10;55.77;92868.19;5076290;28;20032;-88
2022/12/16 00:25:50;;;;;;;657.00;39.80;;;;;;;11.46;57.14;92909.75;5076239;28;20082;-88
2022/12/16 00:28:16;;;;;;;23.85;9.60;;;;;;;12.90;55.95;92905.44;5075926;28;20032;-87
2022/12/16 00:30:42;;;;;;;21.80;9.63;;;;;;;12.86;55.35;92907.94;5077170;28;20465;-87
2022/12/16 00:33:08;;;;;;;25.25;10.00;;;;;;;13.18;54.37;92891.81;5075853;28;20028;-87
2022/12/16 00:35:33;;;;;;;64.22;12.38;;;;;;;12.14;55.43;92890.91;5076936;28;20035;-88
2022/12/16 00:37:59;;;;;;;29.15;10.98;;;;;;;11.44;59.40;92904.81;5077275;28;20426;-87
2022/12/16 00:40:25;;;;;;;25.17;10.27;;;;;;;10.95;67.84;92912.00;5075964;28;20079;-87
2022/12/16 00:42:51;;;;;;;59.17;12.35;;;;;;;12.31;58.86;92899.81;5075684;28;20040;-87
2022/12/16 00:45:16;;;;;;;32.83;12.10;;;;;;;12.03;58.79;92918.56;5076050;28;20073;-87
2022/12/16 00:47:41;;;;;;;29.85;11.73;;;;;;;13.09;57.01;92918.94;5076870;28;20086;-87
2022/12/16 00:50:07;;;;;;;77.38;13.27;;;;;;;12.26;57.34;92876.31;5075796;28;20040;-88
2022/12/16 00:52:33;;;;;;;32.63;11.80;;;;;;;10.82;64.88;92903.94;5075784;28;20064;-87
2022/12/16 00:54:59;;;;;;;181.45;18.08;;;;;;;11.36;63.02;92899.56;5076802;28;20067;-87
2022/12/16 00:57:24;;;;;;;31.95;11.23;;;;;;;13.29;55.53;92898.25;5075483;28;20071;-88
2022/12/16 00:59:50;;;;;;;30.80;12.18;;;;;;;13.53;52.10;92910.78;5075729;28;20048;-87
2022/12/16 01:02:15;;;;;;;32.22;12.43;;;;;;;13.53;53.92;92891.63;5075867;28;20354;-88
2022/12/16 01:04:40;;;;;;;197.68;19.25;;;;;;;11.93;56.84;92896.00;5076995;28;20037;-87
2022/12/16 01:07:06;;;;;;;46.47;13.02;;;;;;;12.64;56.49;92916.84;5076969;28;20037;-88
2022/12/16 01:09:32;;;;;;;82.85;13.73;;;;;;;13.48;53.54;92912.84;5075660;28;20028;-88
2022/12/16 01:11:58;;;;;;;34.13;12.57;;;;;;;13.23;56.01;92921.31;5077985;28;20051;-88
2022/12/16 01:14:23;;;;;;;44.97;14.30;;;;;;;13.27;55.17;92919.63;5080691;28;20028;-88
2022/12/16 01:16:49;;;;;;;57.85;15.15;;;;;;;12.97;54.59;92919.63;5079311;28;20037;-88
2022/12/16 01:19:14;;;;;;;36.50;14.02;;;;;;;14.18;53.40;92928.06;5079269;28;20032;-88
2022/12/16 01:21:40;;;;;;;48.72;15.25;;;;;;;13.93;53.45;92901.66;5080414;28;20032;-88
2022/12/16 01:24:06;;;;;;;79.15;16.95;;;;;;;13.05;55.36;92898.88;5079252;28;20052;-87
2022/12/16 01:26:31;;;;;;;40.53;14.32;;;;;;;13.65;54.35;92899.56;5079556;28;20060;-88
2022/12/16 01:28:57;;;;;;;59.78;14.75;;;;;;;14.45;52.64;92912.75;5079431;28;20349;-88
2022/12/16 01:31:23;;;;;;;86.07;14.75;;;;;;;14.59;52.64;92925.63;5079247;28;20043;-88
2022/12/16 01:33:49;;;;;;;909.58;58.22;;;;;;;14.37;51.55;92916.25;5080520;28;20036;-87
2022/12/16 01:36:15;;;;;;;1085.30;69.20;;;;;;;13.92;54.25;92915.91;5079254;28;20119;-88
2022/12/16 01:38:43;;;;;;;671.30;47.97;;;;;;;14.18;52.84;92911.50;5079247;28;20111;-87
2022/12/16 01:41:09;;;;;;;1285.88;92.13;;;;;;;13.75;53.23;92913.41;5078830;28;20354;-87
2022/12/16 01:43:37;;;;;;;997.30;73.43;;;;;;;13.79;53.69;92912.44;5079153;28;20130;-88
2022/12/16 01:46:12;;;;;;;734.03;47.42;;;;;;;13.73;54.19;92907.69;5080308;28;20333;-88
2022/12/16 01:48:42;;;;;;;549.85;36.53;;;;;;;14.32;53.62;92892.75;5079734;28;20040;-88
2022/12/16 01:51:18;;;;;;;293.58;26.00;;;;;;;15.10;52.03;92885.78;5080077;28;20033;-87
2022/12/16 01:53:44;;;;;;;103.20;15.88;;;;;;;14.97;52.32;92885.00;5078938;28;20032;-88
2022/12/16 01:56:12;;;;;;;171.38;21.02;;;;;;;15.21;51.21;92883.44;5080048;28;20037;-88
2022/12/16 01:58:39;;;;;;;53.65;14.93;;;;;;;15.43;51.03;92884.09;5078572;28;20349;-88
2022/12/16 02:01:06;;;;;;;179.20;18.33;;;;;;;14.74;51.19;92895.22;5079552;28;20053;-88
2022/12/16 02:03:34;;;;;;;718.85;42.22;;;;;;;15.03;49.50;92882.91;5078842;28;20043;-87
2022/12/16 02:06:01;;;;;;;155.40;16.48;;;;;;;14.81;52.00;92889.41;5078415;28;20112;-88
2022/12/16 02:08:26;;;;;;;40.03;12.75;;;;;;;15.02;50.86;92885.91;5078732;28;20086;-88
2022/12/16 02:11:12;;;;;;;459.33;30.15;;;;;;;14.52;51.37;92893.75;5079790;28;20040;-87
2022/12/16 02:13:53;;;;;;;534.88;33.88;;;;;;;14.69;50.10;92888.28;5078088;28;20047;-87
2022/12/16 02:16:35;;;;;;;400.70;26.98;;;;;;;14.63;50.78;92886.97;5079479;28;20338;-88
2022/12/16 02:19:36;;;;;;;294.20;20.05;;;;;;;14.48;50.92;92891.00;5077865;28;20036;-88
2022/12/16 02:22:08;;;;;;;515.60;30.85;;;;;;;13.96;53.01;92893.09;5074060;28;20086;-88
2022/12/16 02:24:58;;;;;;;367.67;25.80;;;;;;;14.36;51.97;92904.19;5076176;28;20117;-88
2022/12/16 02:27:26;;;;;;;497.70;28.52;;;;;;;14.41;51.59;92891.53;5071685;28;20028;-88
2022/12/16 02:30:11;;;;;;;239.75;17.33;;;;;;;13.85;52.52;92903.28;5077563;28;20059;-89
2022/12/16 02:32:52;;;;;;;118.32;13.40;;;;;;;13.89;53.25;92903.38;5069030;28;20052;-88
2022/12/16 02:35:31;;;;;;;571.03;33.70;;;;;;;13.96;52.22;92889.69;5079194;28;20040;-88
2022/12/16 02:38:03;;;;;;;518.40;32.42;;;;;;;13.96;52.57;92895.75;5078192;28;20025;-88
2022/12/16 02:40:54;;;;;;;707.58;42.92;;;;;;;13.88;52.35;92880.78;5078884;28;20071;-88
2022/12/16 02:43:29;;;;;;;199.75;20.88;;;;;;;13.74;53.96;92903.97;5076617;28;20468;-88
2022/12/16 02:45:55;;;;;;;305.08;19.83;;;;;;;12.99;56.19;92898.28;5078687;28;20671;-87
2022/12/16 02:48:20;;;;;;;272.15;20.77;;;;;;;13.99;51.80;92896.97;5069869;28;20043;-88
2022/12/16 02:50:50;;;;;;;360.90;28.33;;;;;;;13.91;53.74;92893.28;5058935;28;20059;-88
2022/12/16 02:53:16;;;;;;;673.13;43.00;;;;;;;13.81;53.19;92891.06;5057374;28;20029;-88
2022/12/16 02:55:55;;;;;;;298.77;20.90;;;;;;;14.90;51.21;92889.31;5057473;28;20095;-88
2022/12/16 02:58:26;;;;;;;958.35;50.58;;;;;;;14.45;52.15;92896.19;5057837;28;20116;-87
2022/12/16 03:01:14;;;;;;;240.57;16.98;;;;;;;15.53;50.68;92901.31;5058494;28;20448;-88
2022/12/16 03:03:43;;;;;;;156.13;17.88;;;;;;;14.68;51.00;92888.63;5057620;28;20108;-87
2022/12/16 03:06:10;;;;;;;68.00;15.02;;;;;;;15.40;50.82;92895.28;5057642;28;20060;-88
2022/12/16 03:08:39;;;;;;;65.30;13.23;;;;;;;15.26;51.41;92903.56;5057573;28;20029;-87
2022/12/16 03:11:07;;;;;;;1090.88;71.18;;;;;;;13.82;52.58;92909.16;5057103;28;20190;-88
2022/12/16 03:13:38;;;;;;;80.28;13.77;;;;;;;15.27;51.29;92905.09;5057167;28;20449;-87
2022/12/16 03:16:06;;;;;;;788.28;54.42;;;;;;;14.52;52.10;92893.75;5057403;28;20511;-88
2022/12/16 03:18:34;;;;;;;911.60;45.55;;;;;;;14.76;50.91;92889.66;5057371;28;20033;-87
2022/12/16 03:21:20;;;;;;;693.65;36.85;;;;;;;14.54;51.27;92896.84;5056966;28;20033;-88
2022/12/16 03:23:57;;;;;;;1006.85;75.72;;;;;;;13.88;53.16;92893.94;5057294;28;20441;-87
2022/12/16 03:26:29;;;;;;;817.75;49.38;;;;;;;14.95;51.73;92892.50;5057209;28;20029;-87
2022/12/16 03:29:01;;;;;;;202.75;17.83;;;;;;;15.27;51.26;92892.66;5057739;28;20033;-88
2022/12/16 03:31:34;;;;;;;245.05;22.42;;;;;;;15.19;51.53;92895.44;5056942;28;20028;-87
2022/12/16 03:34:09;;;;;;;807.85;49.55;;;;;;;14.56;52.04;92884.09;5056650;28;20457;-87
2022/12/16 03:36:37;;;;;;;268.35;20.63;;;;;;;14.59;52.52;92888.72;5056349;28;20028;-88
2022/12/16 03:39:03;;;;;;;507.90;32.30;;;;;;;14.08;53.33;92892.38;5056923;28;20035;-88
2022/12/16 03:41:30;;;;;;;1097.50;65.75;;;;;;;13.49;54.25;92901.25;5057921;28;20036;-88
2022/12/16 03:43:56;;;;;;;95.80;12.98;;;;;;;14.17;53.95;92889.63;5056897;28;20366;-88
2022/12/16 03:46:21;;;;;;;774.88;51.38;;;;;;;13.85;53.68;92897.22;5040165;28;20021;-88
2022/12/16 03:49:35;;;;;;;543.10;33.83;;;;;;;14.51;52.59;92892.22;5056446;28;20095;-88
2022/12/16 03:52:01;;;;;;;;;;;;;;;15.35;51.01;92892.88;5057740;28;20451;-88
2022/12/16 03:54:26;;;;;;;79.07;15.23;;;;;;;14.02;53.14;92906.84;5057886;28;19942;-88
2022/12/16 03:56:52;;;;;;;473.27;29.92;;;;;;;13.82;52.78;92919.69;5055961;28;20037;-88
2022/12/16 03:59:17;;;;;;;36.42;11.75;;;;;;;14.41;52.43;92909.25;5057744;28;20082;-88
2022/12/16 04:01:42;;;;;;;126.72;17.23;;;;;;;13.89;51.85;92898.13;5057365;28;20029;-88
2022/12/16 04:04:08;;;;;;;387.40;28.52;;;;;;;13.69;54.54;92911.00;5057662;28;20071;-87
2022/12/16 04:06:34;;;;;;;47.35;13.13;;;;;;;14.33;52.83;92902.19;5057385;28;20039;-88
2022/12/16 04:08:59;;;;;;;71.07;13.63;;;;;;;14.94;51.64;92904.13;5056115;28;20036;-88
2022/12/16 04:25:34;;;;;;;744.97;45.65;;;;;;;14.03;52.26;92904.97;5077030;28;20070;-88
2022/12/16 04:28:00;;;;;;;163.90;19.63;;;;;;;14.24;53.12;92912.81;5076277;28;20101;-89
2022/12/16 04:30:27;;;;;;;646.97;29.50;;;;;;;13.76;53.66;92917.56;5076077;28;20036;-88
